sensor_id;sensor_type;location;lat;lon;timestamp;P1;durP1;ratioP1;P2;durP2;ratioP2
78856;SDS011;68207;50.078;19.936;2023-05-21T00:02:09;19.40;;;14.70;;
78856;SDS011;68207;50.078;19.936;2023-05-21T00:07:07;19.00;;;14.10;;
78856;SDS011;68207;50.078;19.936;2023-05-21T00:09:32;17.70;;;13.80;;
78856;SDS011;68207;50.078;19.936;2023-05-21T00:11:58;15.80;;;13.30;;
78856;SDS011;68207;50.078;19.936;2023-05-21T00:14:23;16.10;;;14.00;;
78856;SDS011;68207;50.078;19.936;2023-05-21T00:16:49;16.50;;;13.40;;
78856;SDS011;68207;50.078;19.936;2023-05-21T00:19:14;17.50;;;13.60;;
78856;SDS011;68207;50.078;19.936;2023-05-21T00:21:43;15.30;;;13.60;;
78856;SDS011;68207;50.078;19.936;2023-05-21T00:24:10;18.20;;;14.10;;
78856;SDS011;68207;50.078;19.936;2023-05-21T00:26:35;18.70;;;13.60;;
78856;SDS011;68207;50.078;19.936;2023-05-21T00:29:00;17.90;;;14.70;;
78856;SDS011;68207;50.078;19.936;2023-05-21T00:31:26;26.80;;;14.60;;
78856;SDS011;68207;50.078;19.936;2023-05-21T00:33:51;18.40;;;14.60;;
78856;SDS011;68207;50.078;19.936;2023-05-21T00:36:16;16.10;;;13.70;;
78856;SDS011;68207;50.078;19.936;2023-05-21T00:38:42;18.50;;;13.80;;
78856;SDS011;68207;50.078;19.936;2023-05-21T00:41:10;16.50;;;13.30;;
78856;SDS011;68207;50.078;19.936;2023-05-21T00:43:36;17.50;;;14.60;;
78856;SDS011;68207;50.078;19.936;2023-05-21T00:46:05;16.50;;;13.60;;
78856;SDS011;68207;50.078;19.936;2023-05-21T00:48:31;19.80;;;14.60;;
78856;SDS011;68207;50.078;19.936;2023-05-21T00:50:56;18.40;;;13.30;;
78856;SDS011;68207;50.078;19.936;2023-05-21T00:53:21;17.10;;;14.50;;
78856;SDS011;68207;50.078;19.936;2023-05-21T00:55:46;19.10;;;14.60;;
78856;SDS011;68207;50.078;19.936;2023-05-21T00:58:14;15.70;;;14.00;;
78856;SDS011;68207;50.078;19.936;2023-05-21T01:00:41;16.60;;;13.70;;
78856;SDS011;68207;50.078;19.936;2023-05-21T01:03:07;19.10;;;14.20;;
78856;SDS011;68207;50.078;19.936;2023-05-21T01:05:33;18.70;;;13.30;;
78856;SDS011;68207;50.078;19.936;2023-05-21T01:07:58;18.70;;;14.40;;
78856;SDS011;68207;50.078;19.936;2023-05-21T01:10:24;18.60;;;13.90;;
78856;SDS011;68207;50.078;19.936;2023-05-21T01:12:50;17.80;;;14.40;;
78856;SDS011;68207;50.078;19.936;2023-05-21T01:15:19;18.30;;;13.50;;
78856;SDS011;68207;50.078;19.936;2023-05-21T01:17:44;16.50;;;13.70;;
78856;SDS011;68207;50.078;19.936;2023-05-21T01:20:10;15.30;;;13.40;;
78856;SDS011;68207;50.078;19.936;2023-05-21T01:22:41;17.60;;;14.40;;
78856;SDS011;68207;50.078;19.936;2023-05-21T01:25:08;17.10;;;14.20;;
78856;SDS011;68207;50.078;19.936;2023-05-21T01:27:34;17.20;;;14.80;;
78856;SDS011;68207;50.078;19.936;2023-05-21T01:29:59;17.90;;;13.60;;
78856;SDS011;68207;50.078;19.936;2023-05-21T01:32:32;16.60;;;14.20;;
78856;SDS011;68207;50.078;19.936;2023-05-21T01:43:27;16.20;;;13.10;;
78856;SDS011;68207;50.078;19.936;2023-05-21T01:45:55;15.90;;;12.90;;
78856;SDS011;68207;50.078;19.936;2023-05-21T01:48:22;17.10;;;12.90;;
78856;SDS011;68207;50.078;19.936;2023-05-21T01:50:51;15.60;;;13.00;;
78856;SDS011;68207;50.078;19.936;2023-05-21T01:53:19;16.00;;;12.80;;
78856;SDS011;68207;50.078;19.936;2023-05-21T01:55:44;15.00;;;12.90;;
78856;SDS011;68207;50.078;19.936;2023-05-21T01:58:10;16.40;;;13.20;;
78856;SDS011;68207;50.078;19.936;2023-05-21T02:00:36;17.20;;;13.50;;
78856;SDS011;68207;50.078;19.936;2023-05-21T02:03:03;15.40;;;12.20;;
78856;SDS011;68207;50.078;19.936;2023-05-21T02:05:29;16.80;;;14.00;;
78856;SDS011;68207;50.078;19.936;2023-05-21T02:07:54;15.20;;;12.70;;
78856;SDS011;68207;50.078;19.936;2023-05-21T02:10:20;18.10;;;13.80;;
78856;SDS011;68207;50.078;19.936;2023-05-21T02:12:46;15.30;;;12.20;;
78856;SDS011;68207;50.078;19.936;2023-05-21T02:15:11;14.40;;;11.80;;
78856;SDS011;68207;50.078;19.936;2023-05-21T02:17:38;16.50;;;12.50;;
78856;SDS011;68207;50.078;19.936;2023-05-21T02:22:39;14.80;;;11.80;;
78856;SDS011;68207;50.078;19.936;2023-05-21T02:25:05;15.30;;;12.60;;
78856;SDS011;68207;50.078;19.936;2023-05-21T02:27:32;15.10;;;11.70;;
78856;SDS011;68207;50.078;19.936;2023-05-21T02:29:59;18.60;;;11.70;;
78856;SDS011;68207;50.078;19.936;2023-05-21T02:32:24;14.10;;;11.20;;
78856;SDS011;68207;50.078;19.936;2023-05-21T02:34:50;14.00;;;12.00;;
78856;SDS011;68207;50.078;19.936;2023-05-21T02:37:15;17.90;;;12.30;;
78856;SDS011;68207;50.078;19.936;2023-05-21T02:39:41;16.60;;;12.50;;
78856;SDS011;68207;50.078;19.936;2023-05-21T02:42:06;13.60;;;11.40;;
78856;SDS011;68207;50.078;19.936;2023-05-21T02:44:31;13.10;;;11.40;;
78856;SDS011;68207;50.078;19.936;2023-05-21T02:46:57;14.70;;;11.70;;
78856;SDS011;68207;50.078;19.936;2023-05-21T02:49:22;11.80;;;10.20;;
78856;SDS011;68207;50.078;19.936;2023-05-21T02:51:47;16.00;;;11.80;;
78856;SDS011;68207;50.078;19.936;2023-05-21T02:54:13;15.30;;;11.40;;
78856;SDS011;68207;50.078;19.936;2023-05-21T02:59:04;14.00;;;10.50;;
78856;SDS011;68207;50.078;19.936;2023-05-21T03:01:29;13.50;;;10.30;;
78856;SDS011;68207;50.078;19.936;2023-05-21T03:03:54;11.70;;;9.70;;
78856;SDS011;68207;50.078;19.936;2023-05-21T03:06:20;17.70;;;10.80;;
78856;SDS011;68207;50.078;19.936;2023-05-21T03:11:11;14.80;;;10.80;;
78856;SDS011;68207;50.078;19.936;2023-05-21T03:13:36;13.40;;;9.70;;
78856;SDS011;68207;50.078;19.936;2023-05-21T03:16:02;12.20;;;9.90;;
78856;SDS011;68207;50.078;19.936;2023-05-21T03:18:27;12.10;;;9.70;;
78856;SDS011;68207;50.078;19.936;2023-05-21T03:20:53;14.10;;;9.70;;
78856;SDS011;68207;50.078;19.936;2023-05-21T03:23:18;14.20;;;8.90;;
78856;SDS011;68207;50.078;19.936;2023-05-21T03:25:43;12.60;;;9.90;;
78856;SDS011;68207;50.078;19.936;2023-05-21T03:33:03;12.60;;;9.70;;
78856;SDS011;68207;50.078;19.936;2023-05-21T03:35:29;14.10;;;9.90;;
78856;SDS011;68207;50.078;19.936;2023-05-21T03:37:54;13.30;;;9.40;;
78856;SDS011;68207;50.078;19.936;2023-05-21T03:40:19;14.40;;;9.80;;
78856;SDS011;68207;50.078;19.936;2023-05-21T03:42:46;11.60;;;9.20;;
78856;SDS011;68207;50.078;19.936;2023-05-21T03:45:11;12.40;;;9.40;;
78856;SDS011;68207;50.078;19.936;2023-05-21T03:47:36;12.90;;;9.30;;
78856;SDS011;68207;50.078;19.936;2023-05-21T03:50:02;11.70;;;9.00;;
78856;SDS011;68207;50.078;19.936;2023-05-21T03:52:27;11.70;;;9.00;;
78856;SDS011;68207;50.078;19.936;2023-05-21T03:54:53;10.90;;;8.90;;
78856;SDS011;68207;50.078;19.936;2023-05-21T03:57:18;12.20;;;9.00;;
78856;SDS011;68207;50.078;19.936;2023-05-21T03:59:43;12.10;;;9.70;;
78856;SDS011;68207;50.078;19.936;2023-05-21T04:02:09;12.90;;;8.60;;
78856;SDS011;68207;50.078;19.936;2023-05-21T04:04:34;11.40;;;9.00;;
78856;SDS011;68207;50.078;19.936;2023-05-21T04:07:00;11.90;;;9.00;;
78856;SDS011;68207;50.078;19.936;2023-05-21T04:09:28;13.70;;;8.60;;
78856;SDS011;68207;50.078;19.936;2023-05-21T04:11:54;10.70;;;8.50;;
78856;SDS011;68207;50.078;19.936;2023-05-21T04:14:19;10.70;;;8.00;;
78856;SDS011;68207;50.078;19.936;2023-05-21T04:16:45;14.80;;;8.60;;
78856;SDS011;68207;50.078;19.936;2023-05-21T04:19:13;11.30;;;8.50;;
78856;SDS011;68207;50.078;19.936;2023-05-21T04:21:38;14.50;;;9.20;;
78856;SDS011;68207;50.078;19.936;2023-05-21T04:24:04;11.80;;;8.00;;
78856;SDS011;68207;50.078;19.936;2023-05-21T04:26:29;10.10;;;8.00;;
78856;SDS011;68207;50.078;19.936;2023-05-21T04:28:57;8.50;;;7.20;;
78856;SDS011;68207;50.078;19.936;2023-05-21T04:31:23;8.90;;;7.50;;
78856;SDS011;68207;50.078;19.936;2023-05-21T04:33:48;10.20;;;7.60;;
78856;SDS011;68207;50.078;19.936;2023-05-21T04:36:14;9.40;;;7.20;;
78856;SDS011;68207;50.078;19.936;2023-05-21T04:38:41;10.00;;;8.50;;
78856;SDS011;68207;50.078;19.936;2023-05-21T04:41:06;10.40;;;8.00;;
78856;SDS011;68207;50.078;19.936;2023-05-21T04:43:34;9.70;;;7.80;;
78856;SDS011;68207;50.078;19.936;2023-05-21T04:46:00;12.00;;;7.20;;
78856;SDS011;68207;50.078;19.936;2023-05-21T04:48:26;9.60;;;7.20;;
78856;SDS011;68207;50.078;19.936;2023-05-21T04:50:52;8.30;;;7.00;;
78856;SDS011;68207;50.078;19.936;2023-05-21T04:53:19;12.40;;;7.50;;
78856;SDS011;68207;50.078;19.936;2023-05-21T04:55:45;9.10;;;6.40;;
78856;SDS011;68207;50.078;19.936;2023-05-21T04:58:11;9.00;;;6.80;;
78856;SDS011;68207;50.078;19.936;2023-05-21T05:00:36;9.30;;;6.70;;
78856;SDS011;68207;50.078;19.936;2023-05-21T05:03:02;8.60;;;6.50;;
78856;SDS011;68207;50.078;19.936;2023-05-21T05:05:28;11.40;;;7.70;;
78856;SDS011;68207;50.078;19.936;2023-05-21T05:07:53;8.40;;;6.70;;
78856;SDS011;68207;50.078;19.936;2023-05-21T05:10:19;8.30;;;7.00;;
78856;SDS011;68207;50.078;19.936;2023-05-21T05:12:44;8.10;;;6.60;;
78856;SDS011;68207;50.078;19.936;2023-05-21T05:15:09;9.90;;;6.50;;
78856;SDS011;68207;50.078;19.936;2023-05-21T05:17:35;8.20;;;6.60;;
78856;SDS011;68207;50.078;19.936;2023-05-21T05:20:00;8.60;;;6.50;;
78856;SDS011;68207;50.078;19.936;2023-05-21T05:22:25;8.00;;;6.00;;
78856;SDS011;68207;50.078;19.936;2023-05-21T05:24:51;8.30;;;6.10;;
78856;SDS011;68207;50.078;19.936;2023-05-21T05:27:16;8.70;;;5.90;;
78856;SDS011;68207;50.078;19.936;2023-05-21T05:29:42;8.00;;;6.30;;
78856;SDS011;68207;50.078;19.936;2023-05-21T05:32:08;8.00;;;5.60;;
78856;SDS011;68207;50.078;19.936;2023-05-21T05:34:34;8.30;;;5.90;;
78856;SDS011;68207;50.078;19.936;2023-05-21T05:36:59;7.40;;;5.60;;
78856;SDS011;68207;50.078;19.936;2023-05-21T05:39:26;8.90;;;5.30;;
78856;SDS011;68207;50.078;19.936;2023-05-21T05:41:51;7.10;;;5.60;;
78856;SDS011;68207;50.078;19.936;2023-05-21T05:44:17;9.30;;;5.40;;
78856;SDS011;68207;50.078;19.936;2023-05-21T05:46:42;9.10;;;6.40;;
78856;SDS011;68207;50.078;19.936;2023-05-21T05:49:07;8.70;;;5.90;;
78856;SDS011;68207;50.078;19.936;2023-05-21T05:51:33;12.00;;;6.20;;
78856;SDS011;68207;50.078;19.936;2023-05-21T05:53:58;9.00;;;5.80;;
78856;SDS011;68207;50.078;19.936;2023-05-21T05:56:23;8.40;;;5.50;;
78856;SDS011;68207;50.078;19.936;2023-05-21T05:58:48;9.20;;;6.20;;
78856;SDS011;68207;50.078;19.936;2023-05-21T06:01:14;8.50;;;5.50;;
78856;SDS011;68207;50.078;19.936;2023-05-21T06:08:30;6.90;;;5.20;;
78856;SDS011;68207;50.078;19.936;2023-05-21T06:10:58;7.40;;;5.70;;
78856;SDS011;68207;50.078;19.936;2023-05-21T06:13:23;7.10;;;5.60;;
78856;SDS011;68207;50.078;19.936;2023-05-21T06:15:49;8.50;;;5.50;;
78856;SDS011;68207;50.078;19.936;2023-05-21T06:18:15;6.30;;;5.10;;
78856;SDS011;68207;50.078;19.936;2023-05-21T06:20:40;9.80;;;5.80;;
78856;SDS011;68207;50.078;19.936;2023-05-21T06:23:06;8.00;;;5.60;;
78856;SDS011;68207;50.078;19.936;2023-05-21T06:25:32;6.70;;;4.80;;
78856;SDS011;68207;50.078;19.936;2023-05-21T06:27:58;7.10;;;5.30;;
78856;SDS011;68207;50.078;19.936;2023-05-21T06:30:23;9.00;;;4.90;;
78856;SDS011;68207;50.078;19.936;2023-05-21T06:32:48;7.50;;;4.90;;
78856;SDS011;68207;50.078;19.936;2023-05-21T06:35:13;8.10;;;5.10;;
78856;SDS011;68207;50.078;19.936;2023-05-21T06:37:39;6.80;;;5.50;;
78856;SDS011;68207;50.078;19.936;2023-05-21T06:40:04;6.00;;;4.80;;
78856;SDS011;68207;50.078;19.936;2023-05-21T06:49:45;8.40;;;4.40;;
78856;SDS011;68207;50.078;19.936;2023-05-21T06:52:11;5.90;;;4.80;;
78856;SDS011;68207;50.078;19.936;2023-05-21T06:54:36;7.50;;;5.20;;
78856;SDS011;68207;50.078;19.936;2023-05-21T06:57:01;8.00;;;4.70;;
78856;SDS011;68207;50.078;19.936;2023-05-21T06:59:27;7.30;;;4.90;;
78856;SDS011;68207;50.078;19.936;2023-05-21T07:01:52;6.50;;;5.10;;
78856;SDS011;68207;50.078;19.936;2023-05-21T07:04:17;5.20;;;4.40;;
78856;SDS011;68207;50.078;19.936;2023-05-21T07:06:42;10.10;;;5.20;;
78856;SDS011;68207;50.078;19.936;2023-05-21T07:09:08;6.60;;;5.00;;
78856;SDS011;68207;50.078;19.936;2023-05-21T07:11:34;6.70;;;4.90;;
78856;SDS011;68207;50.078;19.936;2023-05-21T07:13:59;11.00;;;4.70;;
78856;SDS011;68207;50.078;19.936;2023-05-21T07:16:25;8.60;;;4.80;;
78856;SDS011;68207;50.078;19.936;2023-05-21T07:18:51;7.70;;;5.00;;
78856;SDS011;68207;50.078;19.936;2023-05-21T07:21:16;7.00;;;4.80;;
78856;SDS011;68207;50.078;19.936;2023-05-21T07:23:41;6.40;;;4.50;;
78856;SDS011;68207;50.078;19.936;2023-05-21T07:26:07;8.00;;;4.90;;
78856;SDS011;68207;50.078;19.936;2023-05-21T07:28:33;6.30;;;5.00;;
78856;SDS011;68207;50.078;19.936;2023-05-21T07:30:59;5.10;;;4.50;;
78856;SDS011;68207;50.078;19.936;2023-05-21T07:33:24;5.80;;;4.50;;
78856;SDS011;68207;50.078;19.936;2023-05-21T07:35:49;6.20;;;4.30;;
78856;SDS011;68207;50.078;19.936;2023-05-21T07:38:15;5.50;;;4.60;;
78856;SDS011;68207;50.078;19.936;2023-05-21T07:40:41;7.60;;;5.00;;
78856;SDS011;68207;50.078;19.936;2023-05-21T07:43:06;5.90;;;4.30;;
78856;SDS011;68207;50.078;19.936;2023-05-21T07:45:31;6.10;;;4.90;;
78856;SDS011;68207;50.078;19.936;2023-05-21T07:47:57;8.00;;;5.00;;
78856;SDS011;68207;50.078;19.936;2023-05-21T07:50:22;9.00;;;4.90;;
78856;SDS011;68207;50.078;19.936;2023-05-21T07:52:49;10.70;;;4.70;;
78856;SDS011;68207;50.078;19.936;2023-05-21T07:55:14;9.30;;;4.60;;
78856;SDS011;68207;50.078;19.936;2023-05-21T07:57:39;4.90;;;3.90;;
78856;SDS011;68207;50.078;19.936;2023-05-21T08:02:33;6.40;;;4.60;;
78856;SDS011;68207;50.078;19.936;2023-05-21T08:04:58;6.60;;;4.70;;
78856;SDS011;68207;50.078;19.936;2023-05-21T08:07:25;7.30;;;4.40;;
78856;SDS011;68207;50.078;19.936;2023-05-21T08:09:51;6.30;;;4.30;;
78856;SDS011;68207;50.078;19.936;2023-05-21T08:12:18;7.10;;;4.60;;
78856;SDS011;68207;50.078;19.936;2023-05-21T08:14:43;10.30;;;5.00;;
78856;SDS011;68207;50.078;19.936;2023-05-21T08:17:08;5.30;;;4.30;;
78856;SDS011;68207;50.078;19.936;2023-05-21T08:19:37;10.30;;;5.00;;
78856;SDS011;68207;50.078;19.936;2023-05-21T08:22:02;9.50;;;4.70;;
78856;SDS011;68207;50.078;19.936;2023-05-21T08:24:27;6.40;;;4.20;;
78856;SDS011;68207;50.078;19.936;2023-05-21T08:26:53;6.60;;;4.60;;
78856;SDS011;68207;50.078;19.936;2023-05-21T08:29:18;7.00;;;4.60;;
78856;SDS011;68207;50.078;19.936;2023-05-21T08:31:43;8.60;;;4.00;;
78856;SDS011;68207;50.078;19.936;2023-05-21T08:34:09;6.20;;;3.90;;
78856;SDS011;68207;50.078;19.936;2023-05-21T08:36:34;6.10;;;4.50;;
78856;SDS011;68207;50.078;19.936;2023-05-21T08:39:00;7.70;;;4.50;;
78856;SDS011;68207;50.078;19.936;2023-05-21T08:41:25;6.60;;;4.00;;
78856;SDS011;68207;50.078;19.936;2023-05-21T08:43:54;4.30;;;3.80;;
78856;SDS011;68207;50.078;19.936;2023-05-21T08:46:22;6.30;;;4.00;;
78856;SDS011;68207;50.078;19.936;2023-05-21T08:48:49;6.00;;;3.90;;
78856;SDS011;68207;50.078;19.936;2023-05-21T08:51:18;5.80;;;4.20;;
78856;SDS011;68207;50.078;19.936;2023-05-21T08:53:45;6.40;;;3.80;;
78856;SDS011;68207;50.078;19.936;2023-05-21T08:56:10;7.10;;;4.60;;
78856;SDS011;68207;50.078;19.936;2023-05-21T08:58:37;6.70;;;4.00;;
78856;SDS011;68207;50.078;19.936;2023-05-21T09:01:04;5.80;;;4.00;;
78856;SDS011;68207;50.078;19.936;2023-05-21T09:03:29;4.80;;;4.10;;
78856;SDS011;68207;50.078;19.936;2023-05-21T09:05:56;6.80;;;4.30;;
78856;SDS011;68207;50.078;19.936;2023-05-21T09:08:29;6.50;;;4.00;;
78856;SDS011;68207;50.078;19.936;2023-05-21T09:10:59;6.50;;;3.90;;
78856;SDS011;68207;50.078;19.936;2023-05-21T09:13:26;5.30;;;3.50;;
78856;SDS011;68207;50.078;19.936;2023-05-21T09:15:52;5.70;;;3.70;;
78856;SDS011;68207;50.078;19.936;2023-05-21T09:18:18;5.10;;;3.80;;
78856;SDS011;68207;50.078;19.936;2023-05-21T09:20:43;5.50;;;3.90;;
78856;SDS011;68207;50.078;19.936;2023-05-21T09:23:09;6.50;;;4.00;;
78856;SDS011;68207;50.078;19.936;2023-05-21T09:25:40;7.20;;;3.70;;
78856;SDS011;68207;50.078;19.936;2023-05-21T09:28:11;6.30;;;3.20;;
78856;SDS011;68207;50.078;19.936;2023-05-21T09:30:42;5.90;;;3.80;;
78856;SDS011;68207;50.078;19.936;2023-05-21T09:33:08;6.00;;;4.00;;
78856;SDS011;68207;50.078;19.936;2023-05-21T09:35:33;5.40;;;3.40;;
78856;SDS011;68207;50.078;19.936;2023-05-21T09:37:59;4.70;;;3.70;;
78856;SDS011;68207;50.078;19.936;2023-05-21T09:40:25;6.70;;;3.60;;
78856;SDS011;68207;50.078;19.936;2023-05-21T09:42:51;9.20;;;3.80;;
78856;SDS011;68207;50.078;19.936;2023-05-21T09:45:21;4.40;;;3.50;;
78856;SDS011;68207;50.078;19.936;2023-05-21T09:47:48;5.30;;;3.30;;
78856;SDS011;68207;50.078;19.936;2023-05-21T09:50:17;9.00;;;3.90;;
78856;SDS011;68207;50.078;19.936;2023-05-21T09:52:44;4.40;;;3.50;;
78856;SDS011;68207;50.078;19.936;2023-05-21T09:55:10;5.20;;;3.80;;
78856;SDS011;68207;50.078;19.936;2023-05-21T09:57:43;4.50;;;3.50;;
78856;SDS011;68207;50.078;19.936;2023-05-21T10:00:19;6.30;;;3.80;;
78856;SDS011;68207;50.078;19.936;2023-05-21T10:02:51;5.10;;;3.60;;
78856;SDS011;68207;50.078;19.936;2023-05-21T10:05:18;5.10;;;3.70;;
78856;SDS011;68207;50.078;19.936;2023-05-21T10:07:50;6.40;;;3.20;;
78856;SDS011;68207;50.078;19.936;2023-05-21T10:10:18;5.50;;;3.80;;
78856;SDS011;68207;50.078;19.936;2023-05-21T10:12:46;6.20;;;3.40;;
78856;SDS011;68207;50.078;19.936;2023-05-21T10:15:16;5.00;;;3.50;;
78856;SDS011;68207;50.078;19.936;2023-05-21T10:17:46;6.70;;;3.30;;
78856;SDS011;68207;50.078;19.936;2023-05-21T10:20:13;5.70;;;3.50;;
78856;SDS011;68207;50.078;19.936;2023-05-21T10:22:39;5.70;;;3.60;;
78856;SDS011;68207;50.078;19.936;2023-05-21T10:25:07;4.80;;;3.80;;
78856;SDS011;68207;50.078;19.936;2023-05-21T10:27:36;6.70;;;3.60;;
78856;SDS011;68207;50.078;19.936;2023-05-21T10:30:03;5.40;;;3.40;;
78856;SDS011;68207;50.078;19.936;2023-05-21T10:32:30;5.50;;;3.80;;
78856;SDS011;68207;50.078;19.936;2023-05-21T10:34:56;4.20;;;3.40;;
78856;SDS011;68207;50.078;19.936;2023-05-21T10:39:48;4.90;;;3.70;;
78856;SDS011;68207;50.078;19.936;2023-05-21T10:44:51;5.80;;;3.60;;
78856;SDS011;68207;50.078;19.936;2023-05-21T10:50:21;10.10;;;3.80;;
78856;SDS011;68207;50.078;19.936;2023-05-21T10:59:02;5.80;;;3.80;;
78856;SDS011;68207;50.078;19.936;2023-05-21T11:01:42;4.80;;;3.60;;
78856;SDS011;68207;50.078;19.936;2023-05-21T11:04:09;5.00;;;3.60;;
78856;SDS011;68207;50.078;19.936;2023-05-21T11:06:36;5.80;;;3.90;;
78856;SDS011;68207;50.078;19.936;2023-05-21T11:09:10;5.20;;;3.50;;
78856;SDS011;68207;50.078;19.936;2023-05-21T11:11:43;4.00;;;3.40;;
78856;SDS011;68207;50.078;19.936;2023-05-21T11:16:55;4.80;;;3.70;;
78856;SDS011;68207;50.078;19.936;2023-05-21T11:19:25;4.10;;;3.10;;
78856;SDS011;68207;50.078;19.936;2023-05-21T11:21:57;6.80;;;3.70;;
78856;SDS011;68207;50.078;19.936;2023-05-21T11:24:23;5.20;;;3.10;;
78856;SDS011;68207;50.078;19.936;2023-05-21T11:29:16;5.40;;;3.60;;
78856;SDS011;68207;50.078;19.936;2023-05-21T11:31:45;5.30;;;3.30;;
78856;SDS011;68207;50.078;19.936;2023-05-21T11:34:18;5.70;;;3.50;;
78856;SDS011;68207;50.078;19.936;2023-05-21T11:39:43;5.70;;;3.50;;
78856;SDS011;68207;50.078;19.936;2023-05-21T11:42:09;4.30;;;3.30;;
78856;SDS011;68207;50.078;19.936;2023-05-21T11:44:37;6.20;;;3.20;;
78856;SDS011;68207;50.078;19.936;2023-05-21T11:47:09;6.50;;;3.30;;
78856;SDS011;68207;50.078;19.936;2023-05-21T11:49:39;6.70;;;2.90;;
78856;SDS011;68207;50.078;19.936;2023-05-21T11:52:05;3.30;;;2.80;;
78856;SDS011;68207;50.078;19.936;2023-05-21T11:54:32;4.00;;;2.90;;
78856;SDS011;68207;50.078;19.936;2023-05-21T11:57:00;5.30;;;2.90;;
78856;SDS011;68207;50.078;19.936;2023-05-21T11:59:26;3.60;;;2.50;;
78856;SDS011;68207;50.078;19.936;2023-05-21T12:01:52;6.00;;;2.80;;
78856;SDS011;68207;50.078;19.936;2023-05-21T12:04:19;4.90;;;2.90;;
78856;SDS011;68207;50.078;19.936;2023-05-21T12:09:12;4.10;;;3.30;;
78856;SDS011;68207;50.078;19.936;2023-05-21T12:14:06;8.00;;;3.60;;
78856;SDS011;68207;50.078;19.936;2023-05-21T12:16:33;4.10;;;3.20;;
78856;SDS011;68207;50.078;19.936;2023-05-21T12:18:58;4.10;;;3.10;;
78856;SDS011;68207;50.078;19.936;2023-05-21T12:21:25;3.90;;;3.10;;
78856;SDS011;68207;50.078;19.936;2023-05-21T12:23:52;3.40;;;2.50;;
78856;SDS011;68207;50.078;19.936;2023-05-21T12:26:17;6.90;;;2.90;;
78856;SDS011;68207;50.078;19.936;2023-05-21T12:28:43;5.90;;;2.90;;
78856;SDS011;68207;50.078;19.936;2023-05-21T12:33:38;5.20;;;2.90;;
78856;SDS011;68207;50.078;19.936;2023-05-21T12:36:03;4.00;;;2.80;;
78856;SDS011;68207;50.078;19.936;2023-05-21T12:41:02;4.70;;;2.90;;
78856;SDS011;68207;50.078;19.936;2023-05-21T12:43:31;3.70;;;2.80;;
78856;SDS011;68207;50.078;19.936;2023-05-21T12:45:57;8.10;;;3.10;;
78856;SDS011;68207;50.078;19.936;2023-05-21T12:48:22;5.10;;;3.00;;
78856;SDS011;68207;50.078;19.936;2023-05-21T12:50:47;4.10;;;3.00;;
78856;SDS011;68207;50.078;19.936;2023-05-21T12:53:12;4.70;;;3.30;;
78856;SDS011;68207;50.078;19.936;2023-05-21T12:55:38;5.80;;;3.10;;
78856;SDS011;68207;50.078;19.936;2023-05-21T12:58:04;4.90;;;3.00;;
78856;SDS011;68207;50.078;19.936;2023-05-21T13:00:31;4.30;;;3.00;;
78856;SDS011;68207;50.078;19.936;2023-05-21T13:02:57;4.80;;;2.90;;
78856;SDS011;68207;50.078;19.936;2023-05-21T13:05:24;3.60;;;2.80;;
78856;SDS011;68207;50.078;19.936;2023-05-21T13:10:15;3.40;;;2.70;;
78856;SDS011;68207;50.078;19.936;2023-05-21T13:15:06;4.00;;;2.80;;
78856;SDS011;68207;50.078;19.936;2023-05-21T13:17:32;5.20;;;3.10;;
78856;SDS011;68207;50.078;19.936;2023-05-21T13:22:36;5.80;;;2.80;;
78856;SDS011;68207;50.078;19.936;2023-05-21T13:25:03;4.40;;;3.00;;
78856;SDS011;68207;50.078;19.936;2023-05-21T13:27:29;4.30;;;2.80;;
78856;SDS011;68207;50.078;19.936;2023-05-21T13:29:54;4.60;;;2.80;;
78856;SDS011;68207;50.078;19.936;2023-05-21T13:32:20;4.20;;;2.70;;
78856;SDS011;68207;50.078;19.936;2023-05-21T13:34:45;4.20;;;2.50;;
78856;SDS011;68207;50.078;19.936;2023-05-21T13:37:11;6.90;;;3.00;;
78856;SDS011;68207;50.078;19.936;2023-05-21T13:39:37;6.00;;;2.80;;
78856;SDS011;68207;50.078;19.936;2023-05-21T13:42:02;6.40;;;3.10;;
78856;SDS011;68207;50.078;19.936;2023-05-21T13:44:29;8.60;;;2.80;;
78856;SDS011;68207;50.078;19.936;2023-05-21T13:46:57;3.70;;;2.70;;
78856;SDS011;68207;50.078;19.936;2023-05-21T13:49:22;7.00;;;3.30;;
78856;SDS011;68207;50.078;19.936;2023-05-21T13:51:47;4.50;;;2.70;;
78856;SDS011;68207;50.078;19.936;2023-05-21T13:54:13;6.30;;;3.00;;
78856;SDS011;68207;50.078;19.936;2023-05-21T13:56:39;4.50;;;2.70;;
78856;SDS011;68207;50.078;19.936;2023-05-21T13:59:05;5.90;;;2.80;;
78856;SDS011;68207;50.078;19.936;2023-05-21T14:01:30;5.70;;;2.60;;
78856;SDS011;68207;50.078;19.936;2023-05-21T14:03:55;7.20;;;2.80;;
78856;SDS011;68207;50.078;19.936;2023-05-21T14:06:20;5.30;;;2.90;;
78856;SDS011;68207;50.078;19.936;2023-05-21T14:08:46;4.70;;;2.30;;
78856;SDS011;68207;50.078;19.936;2023-05-21T14:11:11;3.80;;;2.80;;
78856;SDS011;68207;50.078;19.936;2023-05-21T14:13:36;7.40;;;2.50;;
78856;SDS011;68207;50.078;19.936;2023-05-21T14:16:02;4.70;;;2.80;;
78856;SDS011;68207;50.078;19.936;2023-05-21T14:18:27;4.50;;;3.10;;
78856;SDS011;68207;50.078;19.936;2023-05-21T14:20:52;5.00;;;2.70;;
78856;SDS011;68207;50.078;19.936;2023-05-21T14:23:17;6.80;;;2.60;;
78856;SDS011;68207;50.078;19.936;2023-05-21T14:25:43;7.60;;;3.00;;
78856;SDS011;68207;50.078;19.936;2023-05-21T14:28:08;3.50;;;2.60;;
78856;SDS011;68207;50.078;19.936;2023-05-21T14:30:33;5.10;;;2.70;;
78856;SDS011;68207;50.078;19.936;2023-05-21T14:32:59;3.70;;;2.60;;
78856;SDS011;68207;50.078;19.936;2023-05-21T14:35:25;6.60;;;2.60;;
78856;SDS011;68207;50.078;19.936;2023-05-21T14:37:51;6.80;;;3.10;;
78856;SDS011;68207;50.078;19.936;2023-05-21T14:40:16;8.00;;;2.90;;
78856;SDS011;68207;50.078;19.936;2023-05-21T14:42:41;4.00;;;2.90;;
78856;SDS011;68207;50.078;19.936;2023-05-21T14:45:07;5.50;;;2.90;;
78856;SDS011;68207;50.078;19.936;2023-05-21T14:47:32;4.80;;;2.80;;
78856;SDS011;68207;50.078;19.936;2023-05-21T14:49:58;4.80;;;2.80;;
78856;SDS011;68207;50.078;19.936;2023-05-21T14:52:23;3.00;;;2.40;;
78856;SDS011;68207;50.078;19.936;2023-05-21T14:54:48;4.60;;;2.60;;
78856;SDS011;68207;50.078;19.936;2023-05-21T14:57:13;4.70;;;2.80;;
78856;SDS011;68207;50.078;19.936;2023-05-21T14:59:39;6.20;;;3.00;;
78856;SDS011;68207;50.078;19.936;2023-05-21T15:02:04;4.40;;;2.60;;
78856;SDS011;68207;50.078;19.936;2023-05-21T15:04:29;3.90;;;2.60;;
78856;SDS011;68207;50.078;19.936;2023-05-21T15:06:54;6.10;;;2.70;;
78856;SDS011;68207;50.078;19.936;2023-05-21T15:09:20;9.00;;;3.00;;
78856;SDS011;68207;50.078;19.936;2023-05-21T15:11:45;4.00;;;2.80;;
78856;SDS011;68207;50.078;19.936;2023-05-21T15:14:11;5.30;;;2.80;;
78856;SDS011;68207;50.078;19.936;2023-05-21T15:19:01;6.30;;;2.90;;
78856;SDS011;68207;50.078;19.936;2023-05-21T15:21:27;4.70;;;2.90;;
78856;SDS011;68207;50.078;19.936;2023-05-21T15:23:52;5.10;;;3.10;;
78856;SDS011;68207;50.078;19.936;2023-05-21T15:26:17;3.70;;;2.80;;
78856;SDS011;68207;50.078;19.936;2023-05-21T15:28:43;6.20;;;3.30;;
78856;SDS011;68207;50.078;19.936;2023-05-21T15:31:08;4.80;;;3.00;;
78856;SDS011;68207;50.078;19.936;2023-05-21T15:33:33;4.40;;;2.90;;
78856;SDS011;68207;50.078;19.936;2023-05-21T15:35:59;5.70;;;2.50;;
78856;SDS011;68207;50.078;19.936;2023-05-21T15:38:24;4.20;;;2.80;;
78856;SDS011;68207;50.078;19.936;2023-05-21T15:40:49;6.80;;;3.10;;
78856;SDS011;68207;50.078;19.936;2023-05-21T15:43:14;6.60;;;3.20;;